Malmstrom Air Force Base, MT

4:22 AM MDT on August 30, 2014 (GMT -0600)
Helena Regional | Change Station
CLOSE
Current Station
Airport
Location: Helena,
Elevation: 3865 ft
Nearby Weather Stations

Elev 3865 ft 46.60 °N, 111.99 °W | Updated 29 minutes ago

Scattered Clouds
Scattered Clouds
59 °F
Feels Like 59 °F
N
4
Wind Variable Wind from NW

Today
High -- | Low -- °F
--% Chance of Precip.
Yesterday
High -- | Low -- °F
Precip. -- in
6:40 AM 8:08 PM
Waxing Crescent, 21% visible
Pressure 29.80 in
Visibility 10.0 miles
Clouds Scattered Clouds 12000 ft
Dew Point 45 °F
Humidity 60%
Rainfall 0.00 in
Snow Depth Not available.
UV 0 out of 12
Pollen 7.80 out of 12
Air Quality Not available.
Flu Activity Not available.
METAR KHLN 300953Z AUTO 32003KT 10SM SCT120 15/07 A2985 RMK AO2 SLP091 T01500072

More Conditions Fewer Conditions

Pressure 29.80 in
Visibility 10.0 miles
Clouds Scattered Clouds 12000 ft
Dew Point 45 °F
Humidity 60%
Rainfall 0.00 in
Snow Depth Not available.
UV 0 out of 12
Pollen 7.80 out of 12
Air Quality Not available.
Flu Activity Not available.
METAR KHLN 300953Z AUTO 32003KT 10SM SCT120 15/07 A2985 RMK AO2 SLP091 T01500072

More Conditions Fewer Conditions

10-Day Weather Forecast

Almanac

Astronomy

Aug. 30, 2014 Rise Set
Actual Time 6:40 AM MDT 8:08 PM MDT
Civil Twilight 6:08 AM MDT 8:40 PM MDT
Nautical Twilight 5:29 AM MDT 9:19 PM MDT
Astronomical Twilight 4:47 AM MDT 10:01 PM MDT
Moon 11:54 AM MDT 10:21 PM MDT
Length of Visible Light 14h 31m
Length of Day
13h 27m
Tomorrow will be 3m 17s shorter.
Waxing Crescent, 21% of the Moon is Illuminated
Today
Waxing Crescent
Sep 2
First Quarter
Sep 8
Full
Sep 15
Last Quarter
Sep 24
New

Today's Extremes

State Highs State Lows

Community

WunderPhotos

Upload Photos

1,748,482 photos uploaded!

Nearby

Snow Depth

Station Depth Elevation
Stringer Creek 0 in 6550 ft
Onion Park 0 in 7410 ft
Spur Park 0 in 8100 ft
Pickfoot Creek 0 in 6650 ft
Boulder Mountain 0 in 7950 ft

Earthquake Activity

City Distance Mag. Time & Date
No recent earthquake activity has been reported nearby.
Minimum magnitude displayed is 2.5.

Coastal Water Temperatures

Place Temperature
No Stations Reporting

Nearby Weather Stations